sensor_id;sensor_type;location;lat;lon;timestamp;P1;durP1;ratioP1;P2;durP2;ratioP2
37529;SDS011;23374;52.758;6.872;2023-09-08T00:00:04;7.30;;;4.77;;
37529;SDS011;23374;52.758;6.872;2023-09-08T00:02:26;7.03;;;4.97;;
37529;SDS011;23374;52.758;6.872;2023-09-08T00:04:47;11.53;;;5.03;;
37529;SDS011;23374;52.758;6.872;2023-09-08T00:07:08;7.13;;;5.43;;
37529;SDS011;23374;52.758;6.872;2023-09-08T00:09:28;6.73;;;5.00;;
37529;SDS011;23374;52.758;6.872;2023-09-08T00:11:48;8.97;;;5.63;;
37529;SDS011;23374;52.758;6.872;2023-09-08T00:14:09;10.27;;;5.90;;
37529;SDS011;23374;52.758;6.872;2023-09-08T00:16:29;7.43;;;5.17;;
37529;SDS011;23374;52.758;6.872;2023-09-08T00:18:50;6.93;;;5.37;;
37529;SDS011;23374;52.758;6.872;2023-09-08T00:21:10;7.97;;;5.50;;
37529;SDS011;23374;52.758;6.872;2023-09-08T00:23:30;7.97;;;5.13;;
37529;SDS011;23374;52.758;6.872;2023-09-08T00:25:51;9.67;;;5.80;;
37529;SDS011;23374;52.758;6.872;2023-09-08T00:28:12;7.27;;;5.03;;
37529;SDS011;23374;52.758;6.872;2023-09-08T00:30:32;8.57;;;5.43;;
37529;SDS011;23374;52.758;6.872;2023-09-08T00:32:52;7.23;;;5.27;;
37529;SDS011;23374;52.758;6.872;2023-09-08T00:35:13;11.87;;;6.00;;
37529;SDS011;23374;52.758;6.872;2023-09-08T00:37:33;9.00;;;5.43;;
37529;SDS011;23374;52.758;6.872;2023-09-08T00:39:53;7.33;;;5.20;;
37529;SDS011;23374;52.758;6.872;2023-09-08T00:42:13;7.23;;;5.23;;
37529;SDS011;23374;52.758;6.872;2023-09-08T00:44:34;9.10;;;5.47;;
37529;SDS011;23374;52.758;6.872;2023-09-08T00:48:28;7.30;;;5.30;;
37529;SDS011;23374;52.758;6.872;2023-09-08T00:50:48;8.47;;;5.80;;
37529;SDS011;23374;52.758;6.872;2023-09-08T00:53:09;7.63;;;5.17;;
37529;SDS011;23374;52.758;6.872;2023-09-08T00:55:30;8.53;;;5.23;;
37529;SDS011;23374;52.758;6.872;2023-09-08T00:57:51;7.97;;;5.60;;
37529;SDS011;23374;52.758;6.872;2023-09-08T01:00:13;10.87;;;5.47;;
37529;SDS011;23374;52.758;6.872;2023-09-08T01:02:34;8.17;;;5.70;;
37529;SDS011;23374;52.758;6.872;2023-09-08T01:04:55;8.63;;;5.43;;
37529;SDS011;23374;52.758;6.872;2023-09-08T01:07:15;7.50;;;5.43;;
37529;SDS011;23374;52.758;6.872;2023-09-08T01:09:36;9.30;;;5.57;;
37529;SDS011;23374;52.758;6.872;2023-09-08T01:11:57;9.07;;;5.30;;
37529;SDS011;23374;52.758;6.872;2023-09-08T01:14:21;6.73;;;5.03;;
37529;SDS011;23374;52.758;6.872;2023-09-08T01:16:42;10.57;;;5.13;;
37529;SDS011;23374;52.758;6.872;2023-09-08T01:19:03;9.83;;;5.37;;
37529;SDS011;23374;52.758;6.872;2023-09-08T01:21:52;9.50;;;5.80;;
37529;SDS011;23374;52.758;6.872;2023-09-08T01:25:24;8.03;;;5.43;;
37529;SDS011;23374;52.758;6.872;2023-09-08T01:27:53;7.57;;;5.30;;
37529;SDS011;23374;52.758;6.872;2023-09-08T01:30:14;8.20;;;6.23;;
37529;SDS011;23374;52.758;6.872;2023-09-08T01:32:35;10.47;;;5.77;;
37529;SDS011;23374;52.758;6.872;2023-09-08T01:34:56;9.23;;;5.50;;
37529;SDS011;23374;52.758;6.872;2023-09-08T01:37:22;9.47;;;5.40;;
37529;SDS011;23374;52.758;6.872;2023-09-08T01:39:43;7.80;;;5.40;;
37529;SDS011;23374;52.758;6.872;2023-09-08T01:42:03;8.30;;;5.77;;
37529;SDS011;23374;52.758;6.872;2023-09-08T01:44:24;10.33;;;6.00;;
37529;SDS011;23374;52.758;6.872;2023-09-08T01:48:31;11.77;;;6.10;;
37529;SDS011;23374;52.758;6.872;2023-09-08T01:50:51;10.07;;;5.97;;
37529;SDS011;23374;52.758;6.872;2023-09-08T01:53:11;9.77;;;5.80;;
37529;SDS011;23374;52.758;6.872;2023-09-08T01:55:32;8.67;;;5.30;;
37529;SDS011;23374;52.758;6.872;2023-09-08T01:57:52;9.07;;;6.10;;
37529;SDS011;23374;52.758;6.872;2023-09-08T02:00:13;6.60;;;5.53;;
37529;SDS011;23374;52.758;6.872;2023-09-08T02:02:33;8.90;;;6.23;;
37529;SDS011;23374;52.758;6.872;2023-09-08T02:04:53;10.57;;;6.40;;
37529;SDS011;23374;52.758;6.872;2023-09-08T02:07:13;10.17;;;6.40;;
37529;SDS011;23374;52.758;6.872;2023-09-08T02:09:35;8.97;;;5.83;;
37529;SDS011;23374;52.758;6.872;2023-09-08T02:11:56;7.90;;;6.00;;
37529;SDS011;23374;52.758;6.872;2023-09-08T02:14:17;7.93;;;5.80;;
37529;SDS011;23374;52.758;6.872;2023-09-08T02:16:37;9.30;;;6.43;;
37529;SDS011;23374;52.758;6.872;2023-09-08T02:18:58;9.73;;;6.00;;
37529;SDS011;23374;52.758;6.872;2023-09-08T02:21:18;14.90;;;6.37;;
37529;SDS011;23374;52.758;6.872;2023-09-08T02:23:38;12.70;;;6.40;;
37529;SDS011;23374;52.758;6.872;2023-09-08T02:25:59;9.60;;;6.20;;
37529;SDS011;23374;52.758;6.872;2023-09-08T02:28:19;11.17;;;6.17;;
37529;SDS011;23374;52.758;6.872;2023-09-08T02:30:40;8.57;;;6.23;;
37529;SDS011;23374;52.758;6.872;2023-09-08T02:33:00;14.00;;;6.83;;
37529;SDS011;23374;52.758;6.872;2023-09-08T02:35:25;12.33;;;6.77;;
37529;SDS011;23374;52.758;6.872;2023-09-08T02:37:46;9.93;;;6.03;;
37529;SDS011;23374;52.758;6.872;2023-09-08T02:40:07;12.20;;;6.63;;
37529;SDS011;23374;52.758;6.872;2023-09-08T02:42:27;11.90;;;6.80;;
37529;SDS011;23374;52.758;6.872;2023-09-08T02:44:47;9.83;;;6.33;;
37529;SDS011;23374;52.758;6.872;2023-09-08T02:48:36;11.03;;;7.10;;
37529;SDS011;23374;52.758;6.872;2023-09-08T02:50:57;10.27;;;6.27;;
37529;SDS011;23374;52.758;6.872;2023-09-08T02:53:17;9.73;;;6.40;;
37529;SDS011;23374;52.758;6.872;2023-09-08T02:55:37;7.93;;;6.20;;
37529;SDS011;23374;52.758;6.872;2023-09-08T02:57:57;10.37;;;6.50;;
37529;SDS011;23374;52.758;6.872;2023-09-08T03:00:18;12.17;;;6.60;;
37529;SDS011;23374;52.758;6.872;2023-09-08T03:02:39;12.57;;;6.70;;
37529;SDS011;23374;52.758;6.872;2023-09-08T03:05:00;12.53;;;6.03;;
37529;SDS011;23374;52.758;6.872;2023-09-08T03:07:21;11.43;;;6.90;;
37529;SDS011;23374;52.758;6.872;2023-09-08T03:09:42;8.73;;;5.90;;
37529;SDS011;23374;52.758;6.872;2023-09-08T03:12:03;11.47;;;7.30;;
37529;SDS011;23374;52.758;6.872;2023-09-08T03:14:23;10.40;;;6.23;;
37529;SDS011;23374;52.758;6.872;2023-09-08T03:16:43;9.27;;;6.17;;
37529;SDS011;23374;52.758;6.872;2023-09-08T03:19:03;11.63;;;6.50;;
37529;SDS011;23374;52.758;6.872;2023-09-08T03:21:24;9.37;;;6.90;;
37529;SDS011;23374;52.758;6.872;2023-09-08T03:23:45;10.73;;;7.03;;
37529;SDS011;23374;52.758;6.872;2023-09-08T03:26:06;10.90;;;7.03;;
37529;SDS011;23374;52.758;6.872;2023-09-08T03:28:27;9.07;;;6.53;;
37529;SDS011;23374;52.758;6.872;2023-09-08T03:30:47;10.67;;;7.27;;
37529;SDS011;23374;52.758;6.872;2023-09-08T03:33:07;8.73;;;6.57;;
37529;SDS011;23374;52.758;6.872;2023-09-08T03:35:27;11.33;;;7.50;;
37529;SDS011;23374;52.758;6.872;2023-09-08T03:37:47;13.00;;;6.70;;
37529;SDS011;23374;52.758;6.872;2023-09-08T03:40:09;9.20;;;6.77;;
37529;SDS011;23374;52.758;6.872;2023-09-08T03:42:30;10.87;;;7.27;;
37529;SDS011;23374;52.758;6.872;2023-09-08T03:44:50;10.73;;;7.60;;
37529;SDS011;23374;52.758;6.872;2023-09-08T03:48:41;10.33;;;6.57;;
37529;SDS011;23374;52.758;6.872;2023-09-08T03:51:01;11.70;;;6.90;;
37529;SDS011;23374;52.758;6.872;2023-09-08T03:53:22;8.57;;;6.50;;
37529;SDS011;23374;52.758;6.872;2023-09-08T03:55:42;9.27;;;6.77;;
37529;SDS011;23374;52.758;6.872;2023-09-08T03:58:03;9.87;;;7.10;;
37529;SDS011;23374;52.758;6.872;2023-09-08T04:00:23;10.77;;;6.70;;
37529;SDS011;23374;52.758;6.872;2023-09-08T04:02:44;11.63;;;7.40;;
37529;SDS011;23374;52.758;6.872;2023-09-08T04:05:05;9.17;;;6.80;;
37529;SDS011;23374;52.758;6.872;2023-09-08T04:07:26;10.30;;;7.13;;
37529;SDS011;23374;52.758;6.872;2023-09-08T04:09:46;10.77;;;7.20;;
37529;SDS011;23374;52.758;6.872;2023-09-08T04:12:07;12.63;;;7.20;;
37529;SDS011;23374;52.758;6.872;2023-09-08T04:14:28;11.30;;;7.03;;
37529;SDS011;23374;52.758;6.872;2023-09-08T04:16:50;13.93;;;6.77;;
37529;SDS011;23374;52.758;6.872;2023-09-08T04:19:11;11.90;;;7.00;;
37529;SDS011;23374;52.758;6.872;2023-09-08T04:21:31;9.37;;;6.90;;
37529;SDS011;23374;52.758;6.872;2023-09-08T04:23:52;11.63;;;7.23;;
37529;SDS011;23374;52.758;6.872;2023-09-08T04:26:12;14.97;;;7.13;;
37529;SDS011;23374;52.758;6.872;2023-09-08T04:28:33;9.43;;;7.17;;
37529;SDS011;23374;52.758;6.872;2023-09-08T04:30:53;11.77;;;7.20;;
37529;SDS011;23374;52.758;6.872;2023-09-08T04:33:13;11.50;;;7.20;;
37529;SDS011;23374;52.758;6.872;2023-09-08T04:35:33;12.37;;;7.23;;
37529;SDS011;23374;52.758;6.872;2023-09-08T04:37:53;13.03;;;6.83;;
37529;SDS011;23374;52.758;6.872;2023-09-08T04:40:14;9.00;;;6.43;;
37529;SDS011;23374;52.758;6.872;2023-09-08T04:42:34;15.13;;;6.97;;
37529;SDS011;23374;52.758;6.872;2023-09-08T04:44:54;9.37;;;7.00;;
37529;SDS011;23374;52.758;6.872;2023-09-08T04:47:14;10.97;;;7.20;;
37529;SDS011;23374;52.758;6.872;2023-09-08T04:49:35;10.83;;;7.40;;
37529;SDS011;23374;52.758;6.872;2023-09-08T04:51:56;12.10;;;7.40;;
37529;SDS011;23374;52.758;6.872;2023-09-08T04:54:17;14.87;;;7.63;;
37529;SDS011;23374;52.758;6.872;2023-09-08T04:56:39;11.07;;;7.13;;
37529;SDS011;23374;52.758;6.872;2023-09-08T04:59:00;10.90;;;7.63;;
37529;SDS011;23374;52.758;6.872;2023-09-08T05:01:21;10.00;;;7.67;;
37529;SDS011;23374;52.758;6.872;2023-09-08T05:03:41;10.77;;;7.10;;
37529;SDS011;23374;52.758;6.872;2023-09-08T05:06:02;11.30;;;7.20;;
37529;SDS011;23374;52.758;6.872;2023-09-08T05:08:22;13.73;;;8.10;;
37529;SDS011;23374;52.758;6.872;2023-09-08T05:10:46;11.87;;;7.33;;
37529;SDS011;23374;52.758;6.872;2023-09-08T05:13:06;11.53;;;6.90;;
37529;SDS011;23374;52.758;6.872;2023-09-08T05:15:26;11.97;;;7.13;;
37529;SDS011;23374;52.758;6.872;2023-09-08T05:17:47;10.77;;;6.70;;
37529;SDS011;23374;52.758;6.872;2023-09-08T05:20:08;11.00;;;7.23;;
37529;SDS011;23374;52.758;6.872;2023-09-08T05:22:28;12.27;;;7.23;;
37529;SDS011;23374;52.758;6.872;2023-09-08T05:24:49;13.93;;;6.93;;
37529;SDS011;23374;52.758;6.872;2023-09-08T05:27:15;10.97;;;7.20;;
37529;SDS011;23374;52.758;6.872;2023-09-08T05:29:36;10.00;;;7.13;;
37529;SDS011;23374;52.758;6.872;2023-09-08T05:31:56;10.93;;;7.30;;
37529;SDS011;23374;52.758;6.872;2023-09-08T05:34:16;10.97;;;7.53;;
37529;SDS011;23374;52.758;6.872;2023-09-08T05:36:37;10.63;;;7.40;;
37529;SDS011;23374;52.758;6.872;2023-09-08T05:38:59;9.23;;;6.83;;
37529;SDS011;23374;52.758;6.872;2023-09-08T05:41:20;10.97;;;6.53;;
37529;SDS011;23374;52.758;6.872;2023-09-08T05:43:40;11.80;;;7.20;;
37529;SDS011;23374;52.758;6.872;2023-09-08T05:46:01;11.87;;;7.53;;
37529;SDS011;23374;52.758;6.872;2023-09-08T05:48:22;11.33;;;7.07;;
37529;SDS011;23374;52.758;6.872;2023-09-08T05:50:42;10.17;;;7.60;;
37529;SDS011;23374;52.758;6.872;2023-09-08T05:53:03;10.37;;;7.03;;
37529;SDS011;23374;52.758;6.872;2023-09-08T05:55:23;13.33;;;7.07;;
37529;SDS011;23374;52.758;6.872;2023-09-08T05:57:44;10.27;;;6.33;;
37529;SDS011;23374;52.758;6.872;2023-09-08T06:00:05;11.57;;;7.47;;
37529;SDS011;23374;52.758;6.872;2023-09-08T06:02:26;13.33;;;6.70;;
37529;SDS011;23374;52.758;6.872;2023-09-08T06:04:46;9.50;;;6.53;;
37529;SDS011;23374;52.758;6.872;2023-09-08T06:07:07;14.40;;;7.30;;
37529;SDS011;23374;52.758;6.872;2023-09-08T06:09:27;10.83;;;7.03;;
37529;SDS011;23374;52.758;6.872;2023-09-08T06:11:48;11.27;;;6.73;;
37529;SDS011;23374;52.758;6.872;2023-09-08T06:14:08;10.43;;;6.63;;
37529;SDS011;23374;52.758;6.872;2023-09-08T06:16:29;11.90;;;7.07;;
37529;SDS011;23374;52.758;6.872;2023-09-08T06:18:49;9.10;;;6.30;;
37529;SDS011;23374;52.758;6.872;2023-09-08T06:21:10;9.40;;;6.53;;
37529;SDS011;23374;52.758;6.872;2023-09-08T06:23:30;10.30;;;6.53;;
37529;SDS011;23374;52.758;6.872;2023-09-08T06:25:56;9.47;;;6.67;;
37529;SDS011;23374;52.758;6.872;2023-09-08T06:28:19;10.50;;;6.47;;
37529;SDS011;23374;52.758;6.872;2023-09-08T06:30:40;11.30;;;6.20;;
37529;SDS011;23374;52.758;6.872;2023-09-08T06:33:01;9.17;;;6.37;;
37529;SDS011;23374;52.758;6.872;2023-09-08T06:35:21;11.50;;;6.80;;
37529;SDS011;23374;52.758;6.872;2023-09-08T06:37:42;9.73;;;6.37;;
37529;SDS011;23374;52.758;6.872;2023-09-08T06:40:03;9.97;;;6.20;;
37529;SDS011;23374;52.758;6.872;2023-09-08T06:42:24;12.00;;;7.03;;
37529;SDS011;23374;52.758;6.872;2023-09-08T06:44:45;10.67;;;7.17;;
37529;SDS011;23374;52.758;6.872;2023-09-08T06:47:05;11.47;;;6.57;;
37529;SDS011;23374;52.758;6.872;2023-09-08T06:49:26;13.00;;;6.40;;
37529;SDS011;23374;52.758;6.872;2023-09-08T06:51:46;12.67;;;6.93;;
37529;SDS011;23374;52.758;6.872;2023-09-08T06:54:08;9.73;;;6.77;;
37529;SDS011;23374;52.758;6.872;2023-09-08T06:56:28;9.80;;;6.40;;
37529;SDS011;23374;52.758;6.872;2023-09-08T06:58:49;8.07;;;6.03;;
37529;SDS011;23374;52.758;6.872;2023-09-08T07:01:10;9.67;;;6.40;;
37529;SDS011;23374;52.758;6.872;2023-09-08T07:03:30;10.93;;;6.50;;
37529;SDS011;23374;52.758;6.872;2023-09-08T07:05:56;10.27;;;6.70;;
37529;SDS011;23374;52.758;6.872;2023-09-08T07:08:17;9.67;;;6.37;;
37529;SDS011;23374;52.758;6.872;2023-09-08T07:10:37;10.70;;;6.50;;
37529;SDS011;23374;52.758;6.872;2023-09-08T07:12:58;10.53;;;7.03;;
37529;SDS011;23374;52.758;6.872;2023-09-08T07:15:18;10.83;;;6.67;;
37529;SDS011;23374;52.758;6.872;2023-09-08T07:17:39;12.27;;;6.43;;
37529;SDS011;23374;52.758;6.872;2023-09-08T07:19:59;8.90;;;6.30;;
37529;SDS011;23374;52.758;6.872;2023-09-08T07:22:19;8.53;;;6.47;;
37529;SDS011;23374;52.758;6.872;2023-09-08T07:24:39;9.43;;;6.60;;
37529;SDS011;23374;52.758;6.872;2023-09-08T07:27:00;11.33;;;6.83;;
37529;SDS011;23374;52.758;6.872;2023-09-08T07:29:20;9.33;;;6.37;;
37529;SDS011;23374;52.758;6.872;2023-09-08T07:31:40;9.47;;;7.20;;
37529;SDS011;23374;52.758;6.872;2023-09-08T07:34:00;8.27;;;6.70;;
37529;SDS011;23374;52.758;6.872;2023-09-08T07:36:21;13.80;;;7.30;;
37529;SDS011;23374;52.758;6.872;2023-09-08T07:38:41;8.33;;;6.10;;
37529;SDS011;23374;52.758;6.872;2023-09-08T07:41:01;7.77;;;5.90;;
37529;SDS011;23374;52.758;6.872;2023-09-08T07:43:22;10.00;;;6.57;;
37529;SDS011;23374;52.758;6.872;2023-09-08T07:45:42;8.93;;;6.50;;
37529;SDS011;23374;52.758;6.872;2023-09-08T07:48:02;9.57;;;6.53;;
37529;SDS011;23374;52.758;6.872;2023-09-08T07:50:25;10.07;;;6.63;;
37529;SDS011;23374;52.758;6.872;2023-09-08T07:52:47;9.67;;;5.90;;
37529;SDS011;23374;52.758;6.872;2023-09-08T07:55:08;11.13;;;6.07;;
37529;SDS011;23374;52.758;6.872;2023-09-08T07:57:29;12.20;;;5.73;;
37529;SDS011;23374;52.758;6.872;2023-09-08T07:59:49;8.53;;;5.77;;
37529;SDS011;23374;52.758;6.872;2023-09-08T08:02:10;8.87;;;5.60;;
37529;SDS011;23374;52.758;6.872;2023-09-08T08:04:30;8.33;;;5.47;;
37529;SDS011;23374;52.758;6.872;2023-09-08T08:06:50;10.77;;;5.77;;
37529;SDS011;23374;52.758;6.872;2023-09-08T08:09:11;9.03;;;5.80;;
37529;SDS011;23374;52.758;6.872;2023-09-08T08:11:31;9.53;;;5.83;;
37529;SDS011;23374;52.758;6.872;2023-09-08T08:13:52;8.53;;;5.60;;
37529;SDS011;23374;52.758;6.872;2023-09-08T08:16:12;8.73;;;5.30;;
37529;SDS011;23374;52.758;6.872;2023-09-08T08:18:33;6.77;;;5.13;;
37529;SDS011;23374;52.758;6.872;2023-09-08T08:20:53;8.17;;;5.40;;
37529;SDS011;23374;52.758;6.872;2023-09-08T08:23:14;8.80;;;5.23;;
37529;SDS011;23374;52.758;6.872;2023-09-08T08:25:34;7.30;;;5.00;;
37529;SDS011;23374;52.758;6.872;2023-09-08T08:27:55;9.10;;;5.63;;
37529;SDS011;23374;52.758;6.872;2023-09-08T08:30:19;10.27;;;5.93;;
37529;SDS011;23374;52.758;6.872;2023-09-08T08:32:40;8.90;;;5.47;;
37529;SDS011;23374;52.758;6.872;2023-09-08T08:35:00;7.00;;;4.83;;
37529;SDS011;23374;52.758;6.872;2023-09-08T08:37:21;11.73;;;5.33;;
37529;SDS011;23374;52.758;6.872;2023-09-08T08:39:42;6.03;;;5.20;;
37529;SDS011;23374;52.758;6.872;2023-09-08T08:42:09;6.27;;;4.60;;
37529;SDS011;23374;52.758;6.872;2023-09-08T08:44:30;11.57;;;5.43;;
37529;SDS011;23374;52.758;6.872;2023-09-08T08:46:50;7.93;;;4.90;;
37529;SDS011;23374;52.758;6.872;2023-09-08T08:49:11;6.77;;;5.00;;
37529;SDS011;23374;52.758;6.872;2023-09-08T08:51:34;6.67;;;5.13;;
37529;SDS011;23374;52.758;6.872;2023-09-08T08:53:56;7.47;;;4.83;;
37529;SDS011;23374;52.758;6.872;2023-09-08T08:56:17;5.43;;;4.70;;
37529;SDS011;23374;52.758;6.872;2023-09-08T08:58:38;6.20;;;4.60;;
37529;SDS011;23374;52.758;6.872;2023-09-08T09:00:59;9.47;;;4.80;;
37529;SDS011;23374;52.758;6.872;2023-09-08T09:03:22;8.93;;;4.83;;
37529;SDS011;23374;52.758;6.872;2023-09-08T09:05:45;6.60;;;4.63;;
37529;SDS011;23374;52.758;6.872;2023-09-08T09:08:06;5.83;;;4.77;;
37529;SDS011;23374;52.758;6.872;2023-09-08T09:10:27;10.23;;;4.80;;
37529;SDS011;23374;52.758;6.872;2023-09-08T09:12:47;7.33;;;4.40;;
37529;SDS011;23374;52.758;6.872;2023-09-08T09:15:08;6.63;;;4.53;;
37529;SDS011;23374;52.758;6.872;2023-09-08T09:17:32;5.53;;;3.93;;
37529;SDS011;23374;52.758;6.872;2023-09-08T09:20:13;6.33;;;4.30;;
37529;SDS011;23374;52.758;6.872;2023-09-08T09:22:38;8.53;;;4.70;;
37529;SDS011;23374;52.758;6.872;2023-09-08T09:24:58;6.90;;;4.27;;
37529;SDS011;23374;52.758;6.872;2023-09-08T09:27:18;5.37;;;3.90;;
37529;SDS011;23374;52.758;6.872;2023-09-08T09:29:49;10.27;;;4.13;;
37529;SDS011;23374;52.758;6.872;2023-09-08T09:32:09;7.30;;;4.07;;
37529;SDS011;23374;52.758;6.872;2023-09-08T09:34:29;4.83;;;3.90;;
37529;SDS011;23374;52.758;6.872;2023-09-08T09:36:50;3.80;;;3.40;;
37529;SDS011;23374;52.758;6.872;2023-09-08T09:39:12;7.40;;;4.07;;
37529;SDS011;23374;52.758;6.872;2023-09-08T09:41:33;5.17;;;4.03;;
37529;SDS011;23374;52.758;6.872;2023-09-08T09:43:54;4.73;;;3.90;;
37529;SDS011;23374;52.758;6.872;2023-09-08T09:46:15;6.00;;;3.77;;
37529;SDS011;23374;52.758;6.872;2023-09-08T09:48:36;7.40;;;4.27;;
37529;SDS011;23374;52.758;6.872;2023-09-08T09:50:56;7.70;;;3.67;;
37529;SDS011;23374;52.758;6.872;2023-09-08T09:53:16;5.40;;;3.63;;
37529;SDS011;23374;52.758;6.872;2023-09-08T09:55:38;4.63;;;3.50;;
37529;SDS011;23374;52.758;6.872;2023-09-08T09:58:00;6.53;;;3.90;;
37529;SDS011;23374;52.758;6.872;2023-09-08T10:00:25;5.77;;;3.40;;
37529;SDS011;23374;52.758;6.872;2023-09-08T10:02:46;5.30;;;3.70;;
37529;SDS011;23374;52.758;6.872;2023-09-08T10:05:13;6.17;;;4.03;;
37529;SDS011;23374;52.758;6.872;2023-09-08T10:07:33;4.77;;;3.80;;
37529;SDS011;23374;52.758;6.872;2023-09-08T10:09:54;6.33;;;3.63;;
37529;SDS011;23374;52.758;6.872;2023-09-08T10:12:14;7.57;;;3.87;;
37529;SDS011;23374;52.758;6.872;2023-09-08T10:14:40;4.70;;;3.37;;
37529;SDS011;23374;52.758;6.872;2023-09-08T10:17:01;4.83;;;3.37;;
37529;SDS011;23374;52.758;6.872;2023-09-08T10:19:22;4.27;;;3.30;;
37529;SDS011;23374;52.758;6.872;2023-09-08T10:21:45;7.20;;;3.60;;
37529;SDS011;23374;52.758;6.872;2023-09-08T10:24:24;5.77;;;3.30;;
37529;SDS011;23374;52.758;6.872;2023-09-08T10:26:51;4.80;;;3.60;;
37529;SDS011;23374;52.758;6.872;2023-09-08T10:29:28;4.80;;;3.70;;
37529;SDS011;23374;52.758;6.872;2023-09-08T10:31:50;6.47;;;3.97;;
37529;SDS011;23374;52.758;6.872;2023-09-08T10:34:11;4.93;;;3.87;;
37529;SDS011;23374;52.758;6.872;2023-09-08T10:36:34;4.00;;;3.37;;
37529;SDS011;23374;52.758;6.872;2023-09-08T10:39:28;5.30;;;3.40;;
37529;SDS011;23374;52.758;6.872;2023-09-08T10:42:21;5.80;;;3.83;;
37529;SDS011;23374;52.758;6.872;2023-09-08T10:45:14;4.93;;;3.57;;
37529;SDS011;23374;52.758;6.872;2023-09-08T10:47:56;4.00;;;3.13;;
37529;SDS011;23374;52.758;6.872;2023-09-08T10:50:35;6.53;;;3.80;;
37529;SDS011;23374;52.758;6.872;2023-09-08T10:53:05;4.47;;;3.40;;
37529;SDS011;23374;52.758;6.872;2023-09-08T10:55:39;7.40;;;3.73;;
37529;SDS011;23374;52.758;6.872;2023-09-08T10:58:09;5.97;;;3.40;;
37529;SDS011;23374;52.758;6.872;2023-09-08T11:00:42;4.27;;;3.47;;
37529;SDS011;23374;52.758;6.872;2023-09-08T11:03:04;3.80;;;3.37;;
37529;SDS011;23374;52.758;6.872;2023-09-08T11:05:26;3.73;;;3.27;;
37529;SDS011;23374;52.758;6.872;2023-09-08T11:07:47;4.37;;;3.10;;
37529;SDS011;23374;52.758;6.872;2023-09-08T11:10:13;5.27;;;3.53;;
37529;SDS011;23374;52.758;6.872;2023-09-08T11:12:34;4.30;;;3.20;;
37529;SDS011;23374;52.758;6.872;2023-09-08T11:14:55;5.43;;;3.80;;
37529;SDS011;23374;52.758;6.872;2023-09-08T11:17:16;8.60;;;3.57;;
37529;SDS011;23374;52.758;6.872;2023-09-08T11:19:49;3.80;;;3.40;;
37529;SDS011;23374;52.758;6.872;2023-09-08T11:22:10;7.07;;;3.60;;
37529;SDS011;23374;52.758;6.872;2023-09-08T11:24:30;5.83;;;3.73;;
37529;SDS011;23374;52.758;6.872;2023-09-08T11:26:51;8.83;;;3.83;;
37529;SDS011;23374;52.758;6.872;2023-09-08T11:29:11;4.30;;;3.20;;
37529;SDS011;23374;52.758;6.872;2023-09-08T11:31:32;7.30;;;3.40;;
37529;SDS011;23374;52.758;6.872;2023-09-08T11:33:54;3.67;;;3.10;;
37529;SDS011;23374;52.758;6.872;2023-09-08T11:36:15;4.57;;;3.20;;
37529;SDS011;23374;52.758;6.872;2023-09-08T11:38:35;4.73;;;3.53;;
37529;SDS011;23374;52.758;6.872;2023-09-08T11:40:57;5.27;;;3.53;;
37529;SDS011;23374;52.758;6.872;2023-09-08T11:43:18;6.50;;;3.57;;
37529;SDS011;23374;52.758;6.872;2023-09-08T11:45:39;4.50;;;3.70;;
37529;SDS011;23374;52.758;6.872;2023-09-08T11:48:03;4.87;;;3.73;;
37529;SDS011;23374;52.758;6.872;2023-09-08T11:50:24;4.93;;;3.30;;
37529;SDS011;23374;52.758;6.872;2023-09-08T11:52:46;5.27;;;3.90;;
37529;SDS011;23374;52.758;6.872;2023-09-08T11:55:08;4.40;;;3.30;;
37529;SDS011;23374;52.758;6.872;2023-09-08T11:57:28;6.13;;;3.37;;
37529;SDS011;23374;52.758;6.872;2023-09-08T11:59:49;4.50;;;3.70;;
37529;SDS011;23374;52.758;6.872;2023-09-08T12:02:11;5.40;;;3.50;;
37529;SDS011;23374;52.758;6.872;2023-09-08T12:04:35;4.90;;;3.77;;
37529;SDS011;23374;52.758;6.872;2023-09-08T12:06:55;5.73;;;3.80;;
37529;SDS011;23374;52.758;6.872;2023-09-08T12:09:16;4.10;;;3.30;;
37529;SDS011;23374;52.758;6.872;2023-09-08T12:11:36;3.90;;;3.50;;
37529;SDS011;23374;52.758;6.872;2023-09-08T12:14:01;4.27;;;3.23;;
37529;SDS011;23374;52.758;6.872;2023-09-08T12:16:26;7.03;;;3.60;;
37529;SDS011;23374;52.758;6.872;2023-09-08T12:18:46;5.87;;;3.90;;
37529;SDS011;23374;52.758;6.872;2023-09-08T12:21:08;5.30;;;3.77;;
37529;SDS011;23374;52.758;6.872;2023-09-08T12:23:29;5.20;;;3.43;;
37529;SDS011;23374;52.758;6.872;2023-09-08T12:25:51;5.80;;;3.50;;
37529;SDS011;23374;52.758;6.872;2023-09-08T12:28:12;4.23;;;3.67;;
37529;SDS011;23374;52.758;6.872;2023-09-08T12:30:32;4.90;;;3.80;;
37529;SDS011;23374;52.758;6.872;2023-09-08T12:32:53;4.93;;;3.47;;
37529;SDS011;23374;52.758;6.872;2023-09-08T12:35:19;4.93;;;3.33;;
37529;SDS011;23374;52.758;6.872;2023-09-08T12:37:43;5.10;;;3.90;;
37529;SDS011;23374;52.758;6.872;2023-09-08T12:40:05;5.53;;;3.67;;
37529;SDS011;23374;52.758;6.872;2023-09-08T12:42:26;4.07;;;3.63;;
37529;SDS011;23374;52.758;6.872;2023-09-08T12:44:48;6.77;;;3.43;;
37529;SDS011;23374;52.758;6.872;2023-09-08T12:47:10;5.10;;;3.60;;
37529;SDS011;23374;52.758;6.872;2023-09-08T12:49:34;5.20;;;4.00;;
37529;SDS011;23374;52.758;6.872;2023-09-08T12:51:54;6.07;;;3.60;;
37529;SDS011;23374;52.758;6.872;2023-09-08T12:54:14;6.60;;;4.00;;
37529;SDS011;23374;52.758;6.872;2023-09-08T12:56:35;5.77;;;3.70;;
37529;SDS011;23374;52.758;6.872;2023-09-08T12:58:55;6.53;;;3.60;;
37529;SDS011;23374;52.758;6.872;2023-09-08T13:01:15;6.00;;;3.60;;
37529;SDS011;23374;52.758;6.872;2023-09-08T13:03:36;4.73;;;3.53;;
37529;SDS011;23374;52.758;6.872;2023-09-08T13:05:56;4.87;;;3.50;;
37529;SDS011;23374;52.758;6.872;2023-09-08T13:08:17;4.93;;;3.33;;
37529;SDS011;23374;52.758;6.872;2023-09-08T13:10:37;7.37;;;3.80;;
37529;SDS011;23374;52.758;6.872;2023-09-08T13:12:57;4.93;;;3.50;;
37529;SDS011;23374;52.758;6.872;2023-09-08T13:15:17;4.57;;;3.70;;
37529;SDS011;23374;52.758;6.872;2023-09-08T13:17:37;4.73;;;3.60;;
37529;SDS011;23374;52.758;6.872;2023-09-08T13:19:58;5.87;;;3.67;;
37529;SDS011;23374;52.758;6.872;2023-09-08T13:22:18;5.73;;;3.40;;
37529;SDS011;23374;52.758;6.872;2023-09-08T13:24:38;9.90;;;3.30;;
37529;SDS011;23374;52.758;6.872;2023-09-08T13:27:00;5.50;;;3.50;;
37529;SDS011;23374;52.758;6.872;2023-09-08T13:29:20;5.83;;;4.10;;
37529;SDS011;23374;52.758;6.872;2023-09-08T13:31:40;6.03;;;3.50;;
37529;SDS011;23374;52.758;6.872;2023-09-08T13:34:00;5.43;;;3.23;;
37529;SDS011;23374;52.758;6.872;2023-09-08T13:36:21;5.47;;;3.13;;
37529;SDS011;23374;52.758;6.872;2023-09-08T13:38:41;6.47;;;3.63;;
37529;SDS011;23374;52.758;6.872;2023-09-08T13:41:02;4.93;;;3.80;;
37529;SDS011;23374;52.758;6.872;2023-09-08T13:43:23;5.20;;;3.83;;
37529;SDS011;23374;52.758;6.872;2023-09-08T13:45:44;4.70;;;3.40;;
37529;SDS011;23374;52.758;6.872;2023-09-08T13:48:04;4.60;;;3.57;;
37529;SDS011;23374;52.758;6.872;2023-09-08T13:50:26;6.90;;;3.23;;
37529;SDS011;23374;52.758;6.872;2023-09-08T13:52:47;5.37;;;3.20;;
37529;SDS011;23374;52.758;6.872;2023-09-08T13:55:07;4.23;;;3.53;;
37529;SDS011;23374;52.758;6.872;2023-09-08T13:57:29;6.07;;;3.70;;
37529;SDS011;23374;52.758;6.872;2023-09-08T13:59:49;5.03;;;3.67;;
37529;SDS011;23374;52.758;6.872;2023-09-08T14:02:09;4.17;;;3.37;;
37529;SDS011;23374;52.758;6.872;2023-09-08T14:04:30;5.53;;;3.17;;
37529;SDS011;23374;52.758;6.872;2023-09-08T14:06:50;5.97;;;3.30;;
37529;SDS011;23374;52.758;6.872;2023-09-08T14:09:11;4.77;;;3.50;;
37529;SDS011;23374;52.758;6.872;2023-09-08T14:11:31;4.00;;;3.30;;
37529;SDS011;23374;52.758;6.872;2023-09-08T14:13:52;4.57;;;3.43;;
37529;SDS011;23374;52.758;6.872;2023-09-08T14:16:12;4.87;;;3.27;;